Time;durP1;ratioP1;P1;durP2;ratioP2;P2;SDS_P1;SDS_P2;PMS_P1;PMS_P2;Temp;Humidity;BMP_temperature;BMP_pressure;BME280_temperature;BME280_humidity;BME280_pressure;Samples;Min_cycle;Max_cycle;Signal;HPM_P1;HPM_P2
2023/12/14 00:01:45;;;;;;;11.85;6.43;;;;;;;15.50;53.11;100485.88;5091174;28;20082;-62
2023/12/14 00:04:11;;;;;;;15.50;6.43;;;;;;;15.50;52.53;100491.28;5061328;28;20029;-61
2023/12/14 00:06:37;;;;;;;16.02;6.88;;;;;;;15.49;54.01;100500.41;5057113;28;20462;-61
2023/12/14 00:09:03;;;;;;;14.27;7.72;;;;;;;15.51;52.87;100506.50;5071935;28;20097;-60
2023/12/14 00:11:28;;;;;;;12.07;7.20;;;;;;;15.52;53.18;100504.63;5055400;28;20044;-61
2023/12/14 00:13:53;;;;;;;15.00;8.15;;;;;;;15.51;53.33;100503.78;5089756;28;20412;-60
2023/12/14 00:16:19;;;;;;;14.18;7.40;;;;;;;15.55;54.12;100509.69;5082352;28;20062;-60
2023/12/14 00:18:44;;;;;;;11.75;7.05;;;;;;;15.56;53.55;100517.63;5091838;28;20020;-61
2023/12/14 00:21:10;;;;;;;17.60;7.97;;;;;;;15.58;54.46;100515.59;5082030;28;20033;-60
2023/12/14 00:23:35;;;;;;;18.60;8.07;;;;;;;15.60;53.02;100518.97;5065079;28;20495;-60
2023/12/14 00:26:00;;;;;;;21.40;8.45;;;;;;;15.62;53.64;100527.75;5065227;28;20157;-60
2023/12/14 00:28:26;;;;;;;16.85;8.43;;;;;;;15.66;53.35;100539.88;5081334;28;20033;-60
2023/12/14 00:30:51;;;;;;;20.45;8.27;;;;;;;15.68;53.42;100542.44;5075135;28;20037;-60
2023/12/14 00:33:16;;;;;;;20.50;8.70;;;;;;;15.69;53.30;100534.16;5072719;28;20082;-60
2023/12/14 00:35:42;;;;;;;19.98;8.95;;;;;;;15.70;53.44;100537.69;5054904;28;20067;-60
2023/12/14 00:38:07;;;;;;;21.08;9.43;;;;;;;15.73;53.35;100540.06;5038086;28;20377;-60
2023/12/14 00:40:33;;;;;;;20.85;9.35;;;;;;;15.73;52.98;100551.72;5055103;28;20039;-60
2023/12/14 00:42:58;;;;;;;23.70;8.93;;;;;;;15.74;53.97;100564.19;5055185;28;20105;-60
2023/12/14 00:45:24;;;;;;;22.88;10.10;;;;;;;15.78;53.11;100564.69;5038340;28;20488;-60
2023/12/14 00:47:49;;;;;;;24.83;11.35;;;;;;;15.76;53.56;100565.88;5038170;28;20112;-60
2023/12/14 00:50:14;;;;;;;26.35;10.43;;;;;;;15.80;53.21;100583.44;5071983;28;20025;-61
2023/12/14 00:52:40;;;;;;;25.92;11.13;;;;;;;15.80;53.47;100588.84;5061978;28;20052;-60
2023/12/14 00:55:05;;;;;;;25.10;10.70;;;;;;;15.83;53.48;100599.31;5037895;28;20033;-60
2023/12/14 00:57:31;;;;;;;26.60;11.73;;;;;;;15.83;53.42;100594.72;5072836;28;20056;-60
2023/12/14 00:59:56;;;;;;;29.58;11.98;;;;;;;15.84;53.71;100603.69;5037789;28;20028;-59
2023/12/14 01:02:22;;;;;;;24.15;10.40;;;;;;;15.82;53.74;100608.44;5072483;28;20428;-60
2023/12/14 01:04:47;;;;;;;24.85;10.82;;;;;;;15.80;53.86;100623.97;5054872;28;20060;-60
2023/12/14 01:07:12;;;;;;;20.83;9.45;;;;;;;15.81;53.24;100622.94;5054586;28;20032;-60
2023/12/14 01:09:38;;;;;;;26.38;11.65;;;;;;;15.81;53.72;100622.94;5054201;28;20469;-60
2023/12/14 01:12:03;;;;;;;27.42;10.30;;;;;;;15.81;53.80;100631.03;5072529;28;20040;-59
2023/12/14 01:14:29;;;;;;;20.85;10.45;;;;;;;15.82;53.36;100633.59;5054744;28;20037;-60
2023/12/14 01:16:54;;;;;;;28.80;11.52;;;;;;;15.84;53.06;100645.06;5040217;28;20031;-60
2023/12/14 01:19:20;;;;;;;24.08;10.85;;;;;;;15.81;53.84;100639.13;5042368;28;20039;-59
2023/12/14 01:21:45;;;;;;;24.63;10.55;;;;;;;15.81;53.15;100642.69;5076860;28;20040;-59
2023/12/14 01:24:11;;;;;;;24.60;10.63;;;;;;;15.84;53.96;100649.59;5059092;28;20059;-59
2023/12/14 01:26:36;;;;;;;23.02;10.07;;;;;;;15.84;53.69;100655.84;5076985;28;20036;-60
2023/12/14 01:29:01;;;;;;;25.25;10.40;;;;;;;15.85;53.04;100656.72;5041957;28;20060;-60
2023/12/14 01:31:27;;;;;;;20.88;10.10;;;;;;;15.85;52.99;100656.72;5041747;28;20078;-60
2023/12/14 01:33:52;;;;;;;21.50;10.07;;;;;;;15.83;53.72;100659.56;5058279;28;20044;-60
2023/12/14 01:36:22;;;;;;;20.33;10.00;;;;;;;15.83;53.03;100664.16;5058062;28;20129;-59
2023/12/14 01:38:47;;;;;;;16.55;8.02;;;;;;;15.80;53.64;100667.19;5058284;28;20107;-59
2023/12/14 01:41:13;;;;;;;18.42;7.78;;;;;;;15.81;53.41;100666.16;5075833;28;20580;-59
2023/12/14 01:43:38;;;;;;;19.70;8.00;;;;;;;15.78;52.83;100671.88;5075776;28;20106;-59
2023/12/14 01:46:04;;;;;;;14.43;7.10;;;;;;;15.74;53.14;100677.59;5041451;28;20040;-59
2023/12/14 01:48:29;;;;;;;18.20;7.45;;;;;;;15.73;52.93;100678.63;5074747;28;20127;-59
2023/12/14 01:50:55;;;;;;;14.63;7.50;;;;;;;15.74;53.76;100687.59;5075534;28;20035;-60
2023/12/14 01:53:21;;;;;;;15.75;7.78;;;;;;;15.73;52.61;100688.59;5075695;28;20040;-60
2023/12/14 01:55:46;;;;;;;16.70;8.50;;;;;;;15.70;52.72;100702.41;5057970;28;20396;-59
2023/12/14 01:58:12;;;;;;;14.00;7.57;;;;;;;15.70;52.91;100703.28;5058051;28;20420;-59
2023/12/14 02:01:21;;;;;;;14.52;6.63;;;;;;;15.69;53.36;100715.06;5040106;28;20033;-59
2023/12/14 02:03:49;;;;;;;15.43;7.60;;;;;;;15.67;53.76;100725.22;5040794;28;20045;-59
2023/12/14 02:06:15;;;;;;;16.10;7.97;;;;;;;15.66;53.28;100734.31;5057900;28;20025;-59
2023/12/14 02:08:41;;;;;;;15.52;6.93;;;;;;;15.58;53.69;100736.97;5041185;28;20020;-59
2023/12/14 02:11:06;;;;;;;15.75;7.85;;;;;;;15.52;52.89;100748.44;5075530;28;20508;-59
2023/12/14 02:13:32;;;;;;;14.38;6.55;;;;;;;15.48;53.82;100755.19;5040848;28;20038;-60
2023/12/14 02:15:58;;;;;;;14.40;7.85;;;;;;;15.46;53.42;100753.63;5074385;28;20060;-59
2023/12/14 02:18:23;;;;;;;15.27;7.80;;;;;;;15.41;53.25;100766.75;5057535;28;20116;-59
2023/12/14 02:20:49;;;;;;;14.07;7.28;;;;;;;15.34;53.32;100766.56;5075173;28;20103;-59
2023/12/14 02:23:14;;;;;;;13.98;7.22;;;;;;;15.27;53.17;100768.19;5057270;28;20025;-60
2023/12/14 02:25:39;;;;;;;15.50;6.55;;;;;;;15.21;52.69;100768.84;5057638;28;20036;-59
2023/12/14 02:28:05;;;;;;;16.90;8.13;;;;;;;15.20;52.87;100774.41;5056911;28;20029;-59
2023/12/14 02:30:30;;;;;;;14.20;6.90;;;;;;;15.17;53.05;100783.66;5056918;28;20029;-59
2023/12/14 02:32:56;;;;;;;13.65;6.68;;;;;;;15.14;53.66;100792.06;5075631;28;20098;-60
2023/12/14 02:35:22;;;;;;;15.48;6.80;;;;;;;15.13;53.11;100802.00;5057720;28;20487;-59
2023/12/14 02:37:48;;;;;;;11.98;5.35;;;;;;;15.07;54.25;100808.03;5073969;28;20562;-59
2023/12/14 02:40:13;;;;;;;11.27;6.13;;;;;;;15.04;52.80;100811.09;5040689;28;20040;-59
2023/12/14 02:42:39;;;;;;;11.27;5.65;;;;;;;15.00;52.91;100817.78;5057144;28;20115;-59
2023/12/14 02:45:05;;;;;;;13.05;6.03;;;;;;;14.99;53.74;100810.69;5074692;28;20081;-59
2023/12/14 02:47:30;;;;;;;9.38;5.30;;;;;;;14.98;53.00;100818.94;5057888;28;20032;-59
2023/12/14 02:49:56;;;;;;;11.25;5.85;;;;;;;14.98;52.83;100824.34;5074445;28;20042;-59
2023/12/14 02:52:22;;;;;;;10.38;5.70;;;;;;;14.95;53.11;100830.91;5074862;28;20029;-59
2023/12/14 02:54:47;;;;;;;13.55;6.78;;;;;;;14.96;53.77;100837.16;5074679;28;20025;-59
2023/12/14 02:57:13;;;;;;;13.35;6.28;;;;;;;14.93;53.78;100838.31;5056792;28;20036;-59
2023/12/14 02:59:39;;;;;;;13.45;6.47;;;;;;;14.91;52.49;100848.38;5056553;28;20085;-60
2023/12/14 03:02:04;;;;;;;11.40;5.80;;;;;;;14.89;52.86;100852.25;5055633;28;20062;-59
2023/12/14 03:04:30;;;;;;;10.35;5.63;;;;;;;14.91;53.82;100855.63;5056779;28;20032;-59
2023/12/14 03:06:56;;;;;;;11.02;5.95;;;;;;;14.91;53.58;100858.31;5074891;28;20186;-59
2023/12/14 03:09:21;;;;;;;17.70;6.40;;;;;;;14.91;53.67;100861.03;5074476;28;20032;-60
2023/12/14 03:11:47;;;;;;;16.25;6.70;;;;;;;14.89;52.48;100868.44;5040081;28;20033;-60
2023/12/14 03:14:12;;;;;;;14.02;6.70;;;;;;;14.90;52.09;100880.94;5056721;28;20029;-60
2023/12/14 03:16:38;;;;;;;16.20;6.80;;;;;;;14.87;53.50;100886.63;5040083;28;20415;-59
2023/12/14 03:19:03;;;;;;;14.45;7.45;;;;;;;14.87;52.59;100878.53;5056443;28;20039;-59
2023/12/14 03:21:29;;;;;;;14.57;6.57;;;;;;;14.84;52.58;100884.25;5056767;28;20033;-59
2023/12/14 03:23:56;;;;;;;12.32;6.75;;;;;;;14.83;52.93;100879.84;5056403;28;20404;-59
2023/12/14 03:26:21;;;;;;;12.73;5.57;;;;;;;14.85;52.88;100888.66;5056967;28;20029;-59
2023/12/14 03:28:46;;;;;;;12.80;6.38;;;;;;;14.82;52.81;100895.19;5075943;28;20040;-60
2023/12/14 03:31:12;;;;;;;13.10;6.22;;;;;;;14.84;53.28;100908.50;5059145;28;20123;-59
2023/12/14 03:33:38;;;;;;;14.05;5.90;;;;;;;14.82;53.50;100908.69;5056769;28;20120;-59
2023/12/14 03:36:04;;;;;;;10.73;6.18;;;;;;;14.83;53.49;100917.59;5074737;28;20119;-59
2023/12/14 03:38:29;;;;;;;14.85;6.70;;;;;;;14.83;52.30;100913.06;5039376;28;20115;-60
2023/12/14 03:40:55;;;;;;;14.45;6.00;;;;;;;14.84;52.84;100905.81;5056582;28;20060;-59
2023/12/14 03:43:20;;;;;;;13.50;5.53;;;;;;;14.80;52.53;100913.34;5056602;28;20033;-59
2023/12/14 03:45:46;;;;;;;18.88;7.78;;;;;;;14.75;53.23;100909.44;5056195;28;20044;-59
2023/12/14 03:48:11;;;;;;;15.75;6.97;;;;;;;14.74;53.03;100923.94;5056412;28;20033;-59
2023/12/14 03:50:36;;;;;;;15.30;7.18;;;;;;;14.71;52.73;100908.91;5056391;28;20060;-59
2023/12/14 03:53:02;;;;;;;19.60;7.28;;;;;;;14.74;52.16;100915.84;5074385;28;20036;-59
2023/12/14 03:55:27;;;;;;;15.02;6.55;;;;;;;14.74;52.33;100913.16;5056598;28;20116;-59
2023/12/14 03:57:53;;;;;;;11.60;5.70;;;;;;;14.73;52.52;100922.22;5056279;28;20400;-59
2023/12/14 04:00:18;;;;;;;18.45;7.57;;;;;;;14.71;52.75;100916.16;5055831;28;20085;-59
2023/12/14 04:02:44;;;;;;;15.10;6.45;;;;;;;14.73;52.15;100922.22;5055527;28;20047;-59
2023/12/14 04:05:10;;;;;;;13.77;6.20;;;;;;;14.75;52.38;100931.00;5055315;28;20042;-59
2023/12/14 04:07:36;;;;;;;9.57;5.65;;;;;;;14.77;52.84;100937.94;5038953;28;20031;-59
2023/12/14 04:10:02;;;;;;;11.45;5.82;;;;;;;14.80;52.45;100945.72;5055365;28;20033;-59
2023/12/14 04:12:27;;;;;;;13.27;6.38;;;;;;;14.79;52.89;100938.66;5072610;28;20036;-59
2023/12/14 04:14:52;;;;;;;14.55;6.45;;;;;;;14.77;52.36;100934.41;5055932;28;20443;-59
2023/12/14 04:17:18;;;;;;;14.05;6.60;;;;;;;14.80;51.63;100952.97;5039254;28;20111;-59
2023/12/14 04:19:43;;;;;;;14.20;6.95;;;;;;;14.79;53.21;100945.88;5072937;28;20036;-59
2023/12/14 04:22:08;;;;;;;13.75;6.47;;;;;;;14.75;53.12;100956.13;5055061;28;20428;-59
2023/12/14 04:24:34;;;;;;;14.75;7.00;;;;;;;14.71;51.89;100962.84;5055113;28;20099;-59
2023/12/14 04:27:00;;;;;;;16.30;6.97;;;;;;;14.73;52.03;100973.47;5055251;28;20032;-59
2023/12/14 04:29:25;;;;;;;15.35;7.57;;;;;;;14.72;53.05;100966.34;5055386;28;20036;-60
2023/12/14 04:31:50;;;;;;;17.85;7.57;;;;;;;14.73;52.74;100976.16;5038309;28;20035;-59
2023/12/14 04:34:17;;;;;;;13.52;6.07;;;;;;;14.72;52.63;100975.31;5072833;28;20085;-59
2023/12/14 04:36:42;;;;;;;17.98;6.50;;;;;;;14.71;52.74;100970.06;5072873;28;20028;-59
2023/12/14 04:39:08;;;;;;;17.67;8.35;;;;;;;14.67;52.48;100971.38;5054828;28;20055;-59
2023/12/14 04:41:33;;;;;;;14.93;7.20;;;;;;;14.68;51.77;100973.06;5072691;28;20036;-59
2023/12/14 04:43:58;;;;;;;15.85;7.03;;;;;;;14.68;51.74;100981.16;5054884;28;20051;-59
2023/12/14 04:46:24;;;;;;;13.23;6.03;;;;;;;14.68;53.13;100984.72;5038240;28;20557;-59
2023/12/14 04:48:49;;;;;;;12.15;6.45;;;;;;;14.66;51.71;100993.91;5072698;28;20044;-59
2023/12/14 04:51:15;;;;;;;13.90;6.78;;;;;;;14.64;51.64;100995.94;5054468;28;20123;-59
2023/12/14 04:53:40;;;;;;;11.88;5.97;;;;;;;14.64;53.37;100995.94;5054473;28;20060;-59
2023/12/14 04:56:09;;;;;;;13.77;7.00;;;;;;;14.64;52.34;101004.88;5054269;28;20029;-59
2023/12/14 04:58:35;;;;;;;14.77;6.75;;;;;;;14.64;52.91;101004.88;5072698;28;20113;-59
2023/12/14 05:01:00;;;;;;;11.60;5.78;;;;;;;14.58;52.46;101005.47;5038298;28;20487;-59
2023/12/14 05:03:25;;;;;;;13.88;6.57;;;;;;;14.55;52.08;101014.72;5072458;28;20050;-59
2023/12/14 05:05:51;;;;;;;15.40;7.13;;;;;;;14.53;52.96;101022.09;5054707;28;20024;-59
2023/12/14 05:08:16;;;;;;;15.82;6.30;;;;;;;14.50;51.74;101030.50;5054782;28;20075;-59
2023/12/14 05:10:42;;;;;;;17.25;7.20;;;;;;;14.51;51.52;101036.75;5054913;28;20035;-59
2023/12/14 05:13:08;;;;;;;15.02;7.63;;;;;;;14.48;52.68;101037.03;5054726;28;20032;-59
2023/12/14 05:15:33;;;;;;;18.63;7.10;;;;;;;14.48;52.64;101045.13;5072967;28;20108;-59
2023/12/14 05:17:59;;;;;;;16.48;7.38;;;;;;;14.49;53.22;101058.44;5054685;28;20170;-59
2023/12/14 05:20:24;;;;;;;18.48;6.97;;;;;;;14.49;51.91;101061.13;5038487;28;20186;-60
2023/12/14 05:22:49;;;;;;;17.90;8.02;;;;;;;14.47;52.93;101060.44;5072533;28;20032;-59
2023/12/14 05:25:15;;;;;;;17.02;7.30;;;;;;;14.48;53.14;101069.38;5054532;28;20037;-59
2023/12/14 05:27:40;;;;;;;15.35;7.85;;;;;;;14.49;53.24;101074.59;5054356;28;20447;-59
2023/12/14 05:30:07;;;;;;;18.88;6.88;;;;;;;14.50;52.25;101079.00;5072345;28;20025;-59
2023/12/14 05:32:32;;;;;;;14.40;7.15;;;;;;;14.49;52.75;101076.44;5072530;28;20444;-59
2023/12/14 05:34:59;;;;;;;17.63;7.65;;;;;;;14.45;51.65;101081.31;5054877;28;20067;-59
2023/12/14 05:37:25;;;;;;;20.83;7.57;;;;;;;14.43;53.25;101080.59;5072386;28;20044;-59
2023/12/14 05:39:50;;;;;;;19.92;7.85;;;;;;;14.42;52.03;101087.00;5072422;28;20030;-59
2023/12/14 05:42:17;;;;;;;15.15;7.00;;;;;;;14.41;51.80;101089.81;5073082;28;20044;-59
2023/12/14 05:44:44;;;;;;;19.73;7.60;;;;;;;14.41;51.99;101106.84;5072497;28;20028;-59
2023/12/14 05:47:11;;;;;;;14.82;7.07;;;;;;;14.40;53.37;101105.16;5070473;28;20028;-59
2023/12/14 05:49:37;;;;;;;15.85;7.63;;;;;;;14.39;52.83;101113.38;5071037;28;20051;-59
2023/12/14 05:52:03;;;;;;;18.60;7.38;;;;;;;14.41;51.56;101130.25;5070920;28;20037;-59
2023/12/14 05:54:28;;;;;;;16.08;7.35;;;;;;;14.37;52.87;101127.03;5067641;28;20044;-59
2023/12/14 05:56:53;;;;;;;18.98;7.68;;;;;;;14.37;53.14;101140.50;5072604;28;20037;-59
2023/12/14 05:59:19;;;;;;;14.68;7.10;;;;;;;14.37;52.62;101153.97;5071159;28;20037;-60
2023/12/14 06:01:47;;;;;;;19.38;7.13;;;;;;;14.35;52.19;101150.53;5072895;28;20039;-59
2023/12/14 06:04:13;;;;;;;16.27;6.50;;;;;;;14.33;52.50;101151.69;5076249;28;20037;-59
2023/12/14 06:06:39;;;;;;;14.13;6.55;;;;;;;14.28;53.28;101165.56;5074143;28;20127;-59
2023/12/14 06:09:07;;;;;;;20.25;7.53;;;;;;;14.27;52.90;101177.34;5057785;28;20446;-59
2023/12/14 06:11:33;;;;;;;15.60;6.47;;;;;;;14.26;52.11;101172.97;5074458;28;20035;-59
2023/12/14 06:13:59;;;;;;;19.33;7.47;;;;;;;14.25;52.29;101181.19;5057623;28;20139;-59
2023/12/14 06:16:25;;;;;;;27.17;9.07;;;;;;;14.26;52.31;101190.97;5075460;28;20025;-59
2023/12/14 06:18:50;;;;;;;23.25;8.50;;;;;;;14.25;53.51;101189.25;5057208;28;20035;-59
2023/12/14 06:21:15;;;;;;;17.77;7.97;;;;;;;14.22;52.12;101195.78;5057147;28;20040;-59
2023/12/14 06:23:41;;;;;;;17.98;7.72;;;;;;;14.21;51.96;101207.53;5074378;28;20036;-59
2023/12/14 06:26:06;;;;;;;19.38;8.27;;;;;;;14.22;51.71;101205.72;5074378;28;20149;-59
2023/12/14 06:28:32;;;;;;;18.58;8.00;;;;;;;14.21;52.75;101212.94;5057253;28;20404;-59
2023/12/14 06:30:57;;;;;;;23.25;8.35;;;;;;;14.20;52.00;101222.03;5075385;28;20084;-59
2023/12/14 06:33:22;;;;;;;19.33;8.68;;;;;;;14.14;52.19;101211.81;5075396;28;20055;-59
2023/12/14 06:35:48;;;;;;;19.27;8.68;;;;;;;14.11;53.23;101209.41;5074146;28;20427;-59
2023/12/14 06:38:13;;;;;;;19.25;8.93;;;;;;;14.13;53.10;101226.28;5074036;28;20107;-59
2023/12/14 06:40:38;;;;;;;21.55;9.52;;;;;;;14.13;52.94;101231.66;5075046;28;20025;-60
2023/12/14 06:43:05;;;;;;;20.63;9.48;;;;;;;14.09;52.29;101229.41;5073742;28;20052;-59
2023/12/14 06:45:30;;;;;;;20.70;8.30;;;;;;;14.11;51.65;101238.19;5075020;28;20036;-59
2023/12/14 06:47:56;;;;;;;19.90;8.93;;;;;;;14.09;53.05;101230.25;5073723;28;20028;-59
2023/12/14 06:50:21;;;;;;;16.63;8.02;;;;;;;14.10;52.74;101229.25;5073545;28;20040;-59
2023/12/14 06:52:46;;;;;;;18.77;8.35;;;;;;;14.12;53.12;101235.38;5073642;28;20042;-59
2023/12/14 06:55:14;;;;;;;24.27;9.93;;;;;;;14.09;52.27;101235.66;5073518;28;20060;-59
2023/12/14 06:57:39;;;;;;;17.17;7.72;;;;;;;14.13;51.80;101246.97;5074922;28;20041;-59
2023/12/14 07:00:05;;;;;;;17.60;8.52;;;;;;;14.15;51.42;101253.94;5074883;28;20112;-59
2023/12/14 07:02:31;;;;;;;16.27;7.22;;;;;;;14.18;51.48;101263.59;5073578;28;20037;-59
2023/12/14 07:04:56;;;;;;;20.80;7.97;;;;;;;14.18;52.75;101269.81;5056583;28;20048;-59
2023/12/14 07:07:21;;;;;;;22.30;8.38;;;;;;;14.17;52.72;101265.44;5073361;28;20024;-59
2023/12/14 07:09:47;;;;;;;18.77;8.13;;;;;;;14.19;52.87;101273.34;5073218;28;20033;-60
2023/12/14 07:12:13;;;;;;;20.88;8.45;;;;;;;14.18;51.49;101277.88;5073041;28;20035;-59
2023/12/14 07:14:38;;;;;;;19.40;7.85;;;;;;;14.18;52.69;101277.88;5073115;28;20420;-59
2023/12/14 07:17:05;;;;;;;19.63;8.27;;;;;;;14.17;52.17;101286.97;5072946;28;20036;-59
2023/12/14 07:19:31;;;;;;;19.25;8.65;;;;;;;14.15;52.66;101288.97;5074195;28;20172;-59
2023/12/14 07:21:57;;;;;;;21.38;8.07;;;;;;;14.16;51.41;101290.66;5074238;28;20036;-59
2023/12/14 07:24:22;;;;;;;19.05;8.10;;;;;;;14.17;52.19;101299.59;5056494;28;20035;-59
2023/12/14 07:26:49;;;;;;;21.33;8.55;;;;;;;14.18;52.17;101299.44;5056474;28;20047;-60
2023/12/14 07:29:14;;;;;;;23.80;10.23;;;;;;;14.15;52.79;101310.53;5074159;28;20115;-60
2023/12/14 07:31:40;;;;;;;21.13;8.88;;;;;;;14.16;52.78;101312.22;5074277;28;20622;-60
2023/12/14 07:34:05;;;;;;;15.68;7.90;;;;;;;14.15;52.80;101318.59;5073650;28;20033;-59
2023/12/14 07:36:31;;;;;;;17.73;9.10;;;;;;;14.16;51.94;101322.13;5073978;28;20055;-59
2023/12/14 07:38:57;;;;;;;18.88;8.68;;;;;;;14.16;52.20;101331.06;5055748;28;20170;-59
2023/12/14 07:41:29;;;;;;;18.85;8.90;;;;;;;14.15;51.40;101340.16;5055864;28;20028;-59
2023/12/14 07:43:55;;;;;;;15.45;6.95;;;;;;;14.14;52.46;101340.28;5073868;28;20037;-59
2023/12/14 07:46:20;;;;;;;18.80;8.18;;;;;;;14.15;51.44;101348.25;5073658;28;20029;-59
2023/12/14 07:48:45;;;;;;;18.92;8.65;;;;;;;14.13;52.17;101346.66;5073489;28;20492;-60
2023/12/14 07:51:11;;;;;;;14.52;7.07;;;;;;;14.12;52.54;101353.06;5093131;28;20039;-59
2023/12/14 07:53:36;;;;;;;15.77;7.20;;;;;;;14.08;52.64;101365.94;5075447;28;20043;-59
2023/12/14 07:56:02;;;;;;;16.17;7.57;;;;;;;14.11;51.45;101372.88;5075663;28;20391;-59
2023/12/14 07:58:28;;;;;;;16.73;7.90;;;;;;;14.11;52.25;101379.13;5075514;28;20040;-59
2023/12/14 08:00:54;;;;;;;17.52;8.00;;;;;;;14.11;52.45;101384.53;5093188;28;20020;-59
2023/12/14 08:03:19;;;;;;;20.92;7.50;;;;;;;14.07;52.10;101388.47;5093491;28;20376;-59
2023/12/14 08:05:44;;;;;;;15.63;7.53;;;;;;;14.11;50.92;101400.69;5093443;28;20036;-59
2023/12/14 08:08:10;;;;;;;15.82;8.40;;;;;;;14.13;51.08;101409.47;5093579;28;20515;-59
2023/12/14 08:10:35;;;;;;;16.52;8.10;;;;;;;14.11;52.26;101408.75;5075782;28;20044;-59
2023/12/14 08:13:00;;;;;;;18.98;7.50;;;;;;;14.13;52.34;101425.63;5093628;28;20491;-59
2023/12/14 08:15:26;;;;;;;14.55;6.78;;;;;;;14.15;52.52;101426.38;5075545;28;20035;-59
2023/12/14 08:17:51;;;;;;;13.55;6.82;;;;;;;14.15;51.06;101422.81;5058656;28;20028;-59
2023/12/14 08:20:16;;;;;;;15.20;7.28;;;;;;;14.15;52.23;101428.22;5075475;28;20103;-59
2023/12/14 08:22:44;;;;;;;14.38;6.82;;;;;;;14.15;51.81;101431.75;5076037;28;20028;-59
2023/12/14 08:25:13;;;;;;;14.05;7.43;;;;;;;14.10;52.11;101436.69;5093431;28;20582;-59
2023/12/14 08:27:38;;;;;;;11.75;6.07;;;;;;;14.11;52.69;101440.25;5075686;28;20036;-59
2023/12/14 08:30:05;;;;;;;13.85;6.93;;;;;;;14.10;51.84;101458.25;5075285;28;20033;-59
2023/12/14 08:32:30;;;;;;;15.48;8.40;;;;;;;14.07;51.33;101453.13;5075197;28;20083;-59
2023/12/14 08:34:55;;;;;;;15.02;7.22;;;;;;;14.08;52.06;101459.38;5093191;28;20028;-59
2023/12/14 08:37:21;;;;;;;11.52;6.15;;;;;;;14.09;52.40;101467.34;5092969;28;20054;-58
2023/12/14 08:39:46;;;;;;;16.30;7.30;;;;;;;14.10;51.44;101462.81;5074880;28;20487;-59
2023/12/14 08:42:11;;;;;;;16.83;7.32;;;;;;;14.09;51.07;101461.94;5058541;28;20063;-59
2023/12/14 08:44:40;;;;;;;13.35;7.75;;;;;;;14.09;51.69;101461.94;5092944;28;20403;-61
2023/12/14 08:47:05;;;;;;;16.58;7.40;;;;;;;14.11;52.18;101465.34;5092926;28;20032;-59
2023/12/14 08:49:30;;;;;;;14.40;7.20;;;;;;;14.10;51.50;101474.41;5074459;28;20036;-59
2023/12/14 08:51:56;;;;;;;14.13;6.75;;;;;;;14.13;51.95;101474.13;5088991;28;20499;-59
2023/12/14 08:54:21;;;;;;;18.67;6.95;;;;;;;14.14;50.94;101475.84;5072654;28;20056;-59
2023/12/14 08:56:47;;;;;;;13.60;7.03;;;;;;;14.16;51.03;101473.00;5055160;28;20033;-59
2023/12/14 08:59:12;;;;;;;13.23;6.03;;;;;;;14.16;51.68;101479.25;5054264;28;20047;-60
2023/12/14 09:01:38;;;;;;;15.18;7.07;;;;;;;14.18;51.47;101488.03;5067933;28;20017;-60
2023/12/14 09:04:04;;;;;;;14.63;7.22;;;;;;;14.18;51.83;101490.75;5072138;28;20028;-59
2023/12/14 09:06:29;;;;;;;14.85;7.38;;;;;;;14.19;51.49;101500.53;5051398;28;20398;-59
2023/12/14 09:08:54;;;;;;;13.30;7.88;;;;;;;14.20;51.84;101499.56;5087750;28;20029;-59
2023/12/14 09:11:20;;;;;;;14.98;7.18;;;;;;;14.22;51.63;101504.81;5052843;28;20025;-59
2023/12/14 09:13:45;;;;;;;15.77;7.57;;;;;;;14.20;51.20;101502.25;5087681;28;20025;-59
2023/12/14 09:16:11;;;;;;;13.73;6.80;;;;;;;14.23;51.36;101520.84;5034712;28;20025;-59
2023/12/14 09:18:36;;;;;;;14.15;7.32;;;;;;;14.20;50.87;101523.81;5051157;28;20038;-59
2023/12/14 09:21:03;;;;;;;12.88;6.38;;;;;;;14.21;51.38;101533.59;5034483;28;20024;-59
2023/12/14 09:23:28;;;;;;;14.57;7.10;;;;;;;14.23;51.95;101538.84;5052345;28;20521;-59
2023/12/14 09:25:55;;;;;;;17.08;7.75;;;;;;;14.24;51.76;101546.78;5051278;28;20024;-59
2023/12/14 09:28:21;;;;;;;15.10;6.88;;;;;;;14.24;51.37;101556.72;5052375;28;20023;-59
2023/12/14 09:30:46;;;;;;;13.40;7.40;;;;;;;14.23;51.58;101550.50;5050990;28;20013;-59
2023/12/14 09:33:12;;;;;;;20.05;8.45;;;;;;;14.21;51.61;101552.44;5051043;28;20056;-59
2023/12/14 09:35:37;;;;;;;15.77;7.47;;;;;;;14.20;51.80;101550.75;5052286;28;20473;-59
2023/12/14 09:38:03;;;;;;;15.48;7.53;;;;;;;14.24;51.19;101557.56;5053261;28;20027;-59
2023/12/14 09:40:29;;;;;;;15.73;8.45;;;;;;;14.23;50.90;101566.66;5054867;28;20028;-59
2023/12/14 09:42:55;;;;;;;14.15;7.38;;;;;;;14.23;52.43;101565.81;5055974;28;20540;-59
2023/12/14 09:45:24;;;;;;;15.18;6.93;;;;;;;14.21;51.43;101574.00;5054472;28;20017;-59
2023/12/14 09:47:49;;;;;;;13.80;7.82;;;;;;;14.22;50.61;101570.31;5054603;28;20416;-59
2023/12/14 09:50:16;;;;;;;14.27;7.18;;;;;;;14.24;52.42;101580.97;5073430;28;20136;-59
2023/12/14 09:52:45;;;;;;;14.93;6.95;;;;;;;14.23;51.06;101574.75;5075872;28;20028;-58
2023/12/14 09:55:11;;;;;;;14.45;7.57;;;;;;;14.22;51.09;101586.50;5073980;28;20029;-59
2023/12/14 09:57:36;;;;;;;15.70;6.88;;;;;;;14.24;50.35;101583.66;5075740;28;20055;-59
2023/12/14 10:00:04;;;;;;;13.80;6.50;;;;;;;14.25;50.66;101591.63;5057855;28;20484;-59
2023/12/14 10:02:30;;;;;;;14.30;6.43;;;;;;;14.27;52.44;101596.88;5075813;28;20040;-59
2023/12/14 10:04:55;;;;;;;13.23;7.00;;;;;;;14.24;51.86;101592.59;5057762;28;20098;-59
2023/12/14 10:07:23;;;;;;;14.00;6.50;;;;;;;14.25;51.42;101591.63;5091206;28;20039;-59
2023/12/14 10:09:50;;;;;;;13.48;6.35;;;;;;;14.26;52.13;101598.72;5091256;28;20029;-59
2023/12/14 10:12:15;;;;;;;13.15;6.65;;;;;;;14.25;51.82;101602.41;5073952;28;20040;-59
2023/12/14 10:14:41;;;;;;;12.93;6.18;;;;;;;14.25;50.94;101606.94;5057467;28;20024;-58
2023/12/14 10:17:21;;;;;;;15.48;7.30;;;;;;;14.27;52.20;101610.34;5057537;28;20059;-59
2023/12/14 10:19:47;;;;;;;13.98;6.63;;;;;;;14.27;51.57;101621.13;5057675;28;20032;-59
2023/12/14 10:22:17;;;;;;;11.75;6.30;;;;;;;14.27;51.38;101615.72;5091000;28;20040;-59
2023/12/14 10:24:51;;;;;;;14.45;6.95;;;;;;;14.27;50.86;101611.19;5057291;28;20033;-59
2023/12/14 10:27:17;;;;;;;13.73;5.82;;;;;;;14.31;51.43;101627.97;5090986;28;20035;-60
2023/12/14 10:29:44;;;;;;;14.73;6.57;;;;;;;14.33;50.61;101631.41;5090688;28;20025;-59
2023/12/14 10:32:11;;;;;;;12.48;6.13;;;;;;;14.35;52.15;101638.38;5057044;28;20033;-59
2023/12/14 10:34:37;;;;;;;9.45;5.60;;;;;;;14.35;50.99;101635.66;5075287;28;20036;-58
2023/12/14 10:37:05;;;;;;;12.00;6.28;;;;;;;14.37;51.15;101643.63;5057171;28;20047;-59
2023/12/14 10:39:31;;;;;;;12.85;6.15;;;;;;;14.37;51.67;101644.50;5057041;28;20029;-59
2023/12/14 10:41:57;;;;;;;14.35;6.10;;;;;;;14.39;50.56;101644.34;5090652;28;20052;-59
2023/12/14 10:44:26;;;;;;;15.50;6.78;;;;;;;14.39;50.72;101645.22;5056888;28;20110;-59
2023/12/14 10:46:56;;;;;;;13.63;7.25;;;;;;;14.40;51.23;101660.41;5090439;28;20032;-59
2023/12/14 10:49:23;;;;;;;15.57;8.18;;;;;;;14.43;50.34;101664.66;5052317;28;20124;-59
2023/12/14 10:51:48;;;;;;;19.10;6.60;;;;;;;14.44;51.09;101675.31;5054759;28;20041;-59
2023/12/14 10:54:15;;;;;;;14.93;6.85;;;;;;;14.45;51.40;101657.28;5037194;28;20036;-59
2023/12/14 10:56:40;;;;;;;13.90;6.65;;;;;;;14.42;51.44;101653.03;5036829;28;20029;-59
2023/12/14 10:59:06;;;;;;;11.43;6.05;;;;;;;14.43;51.53;101668.19;5036813;28;20385;-59
2023/12/14 11:01:32;;;;;;;19.75;8.00;;;;;;;14.43;50.73;101662.81;5036980;28;20040;-60
2023/12/14 11:03:59;;;;;;;14.02;6.50;;;;;;;14.48;50.57;101671.38;5036705;28;20033;-59
2023/12/14 11:06:24;;;;;;;15.80;7.30;;;;;;;14.51;51.41;101679.19;5054346;28;20493;-59
2023/12/14 11:08:54;;;;;;;16.90;7.28;;;;;;;14.45;51.60;101674.34;5054694;28;20037;-59
2023/12/14 11:11:20;;;;;;;16.15;5.95;;;;;;;14.48;51.67;101674.06;5054449;28;20520;-58